createdAt,value
2019-03-26T00:01:22.813Z,4.25
2019-03-26T00:06:26.576Z,4.37
2019-03-26T00:08:57.981Z,4.47
2019-03-26T00:11:29.287Z,4.58
2019-03-26T00:14:01.802Z,4.97
2019-03-26T00:16:33.197Z,5.65
2019-03-26T00:19:05.964Z,6.25
2019-03-26T00:24:09.195Z,4.90
2019-03-26T00:26:40.678Z,4.53
2019-03-26T00:29:11.950Z,4.92
2019-03-26T00:31:43.228Z,5.58
2019-03-26T00:36:48.408Z,5.17
2019-03-26T00:39:19.821Z,4.15
2019-03-26T00:41:51.205Z,4.33
2019-03-26T00:44:22.510Z,4.90
2019-03-26T00:46:53.927Z,5.55
2019-03-26T00:49:25.227Z,5.65
2019-03-26T00:51:56.653Z,6.10
2019-03-26T00:54:28.028Z,6.28
2019-03-26T00:56:59.484Z,5.92
2019-03-26T00:59:30.733Z,5.97
2019-03-26T01:02:02.231Z,5.62
2019-03-26T01:04:33.871Z,5.47
2019-03-26T01:07:05.247Z,4.83
2019-03-26T01:09:37.533Z,4.70
2019-03-26T01:12:08.982Z,5.10
2019-03-26T01:14:40.489Z,5.00
2019-03-26T01:17:11.771Z,5.05
2019-03-26T01:19:43.172Z,5.80
2019-03-26T01:22:15.077Z,5.50
2019-03-26T01:24:46.437Z,6.65
2019-03-26T01:27:17.754Z,5.35
2019-03-26T01:29:49.078Z,5.67
2019-03-26T01:32:20.447Z,6.60
2019-03-26T01:34:51.859Z,6.40
2019-03-26T01:37:23.158Z,5.60
2019-03-26T01:39:54.484Z,6.40
2019-03-26T01:42:25.699Z,5.80
2019-03-26T01:44:56.846Z,6.87
2019-03-26T01:47:28.085Z,6.15
2019-03-26T01:49:59.379Z,6.72
2019-03-26T01:52:30.784Z,5.87
2019-03-26T01:55:02.085Z,6.00
2019-03-26T01:57:33.472Z,6.37
2019-03-26T02:00:06.264Z,5.65
2019-03-26T02:02:38.769Z,6.58
2019-03-26T02:05:10.017Z,6.90
2019-03-26T02:07:41.380Z,7.78
2019-03-26T02:10:12.752Z,7.12
2019-03-26T02:12:44.146Z,6.78
2019-03-26T02:15:21.508Z,5.67
2019-03-26T02:17:52.857Z,5.85
2019-03-26T02:20:24.159Z,5.03
2019-03-26T02:22:55.979Z,6.10
2019-03-26T02:25:27.404Z,5.15
2019-03-26T02:27:58.725Z,5.25
2019-03-26T02:30:30.375Z,5.80
2019-03-26T02:33:01.879Z,5.30
2019-03-26T02:35:34.165Z,5.83
2019-03-26T02:38:05.475Z,5.78
2019-03-26T02:40:36.958Z,4.95
2019-03-26T02:43:08.184Z,5.70
2019-03-26T02:45:39.631Z,5.45
2019-03-26T02:48:11.044Z,5.67
2019-03-26T02:50:42.424Z,6.22
2019-03-26T02:53:13.793Z,5.08
2019-03-26T02:55:45.058Z,5.50
2019-03-26T02:58:16.347Z,5.15
2019-03-26T03:00:47.768Z,5.78
2019-03-26T03:03:19.023Z,5.15
2019-03-26T03:05:50.478Z,5.72
2019-03-26T03:08:22.189Z,5.78
2019-03-26T03:10:53.484Z,5.25
2019-03-26T03:13:24.843Z,5.70
2019-03-26T03:15:56.239Z,5.12
2019-03-26T03:18:27.531Z,4.95
2019-03-26T03:20:58.899Z,5.12
2019-03-26T03:23:30.437Z,4.92
2019-03-26T03:26:01.663Z,4.83
2019-03-26T03:28:33.994Z,4.85
2019-03-26T03:31:05.214Z,5.05
2019-03-26T03:33:37.665Z,5.47
2019-03-26T03:36:09.113Z,4.72
2019-03-26T03:38:41.603Z,5.20
2019-03-26T03:41:13.217Z,5.62
2019-03-26T03:43:46.155Z,5.58
2019-03-26T03:48:48.259Z,4.87
2019-03-26T03:51:20.052Z,5.75
2019-03-26T03:53:51.384Z,5.28
2019-03-26T03:56:22.692Z,5.62
2019-03-26T03:58:54.039Z,5.33
2019-03-26T04:01:25.319Z,5.92
2019-03-26T04:03:56.623Z,6.25
2019-03-26T04:06:27.763Z,6.03
2019-03-26T04:08:59.111Z,6.37
2019-03-26T04:11:30.336Z,6.60
2019-03-26T04:14:01.607Z,5.90
2019-03-26T04:16:33.698Z,6.47
2019-03-26T04:19:05.087Z,7.15
2019-03-26T04:21:36.414Z,6.37
2019-03-26T04:24:07.770Z,6.78
2019-03-26T04:26:39.118Z,6.58
2019-03-26T04:29:10.465Z,6.83
2019-03-26T04:31:41.760Z,7.95
2019-03-26T04:34:13.138Z,7.83
2019-03-26T04:36:44.367Z,7.95
2019-03-26T04:39:15.649Z,8.30
2019-03-26T04:41:46.977Z,8.05
2019-03-26T04:44:18.290Z,7.62
2019-03-26T04:46:49.365Z,7.85
2019-03-26T04:49:20.673Z,7.97
2019-03-26T04:51:51.985Z,7.70
2019-03-26T04:54:23.120Z,7.72
2019-03-26T04:56:54.265Z,8.43
2019-03-26T04:59:25.617Z,8.38
2019-03-26T05:01:56.921Z,8.93
2019-03-26T05:04:28.313Z,9.65
2019-03-26T05:06:59.755Z,9.58
2019-03-26T05:09:31.072Z,9.35
2019-03-26T05:12:02.397Z,7.80
2019-03-26T05:14:33.712Z,8.53
2019-03-26T05:17:05.095Z,8.33
2019-03-26T05:19:36.407Z,7.58
2019-03-26T05:22:07.705Z,6.60
2019-03-26T05:24:38.997Z,6.47
2019-03-26T05:27:10.318Z,7.45
2019-03-26T05:29:41.705Z,8.08
2019-03-26T05:32:12.984Z,7.67
2019-03-26T05:34:44.184Z,7.70
2019-03-26T05:37:15.496Z,8.23
2019-03-26T05:39:46.883Z,8.20
2019-03-26T05:42:18.232Z,8.45
2019-03-26T05:44:49.997Z,8.50
2019-03-26T05:47:21.316Z,9.15
2019-03-26T05:49:52.538Z,10.03
2019-03-26T05:52:23.977Z,11.08
2019-03-26T05:54:57.979Z,12.88
2019-03-26T05:57:29.215Z,15.90
2019-03-26T06:00:00.458Z,14.85
2019-03-26T06:02:31.870Z,14.75
2019-03-26T06:05:03.244Z,14.53
2019-03-26T06:07:34.564Z,15.85
2019-03-26T06:10:09.714Z,16.62
2019-03-26T06:12:40.923Z,18.15
2019-03-26T06:15:12.855Z,18.10
2019-03-26T06:17:44.176Z,19.77
2019-03-26T06:20:15.758Z,17.65
2019-03-26T06:22:47.056Z,19.10
2019-03-26T06:25:18.518Z,21.93
2019-03-26T06:27:49.810Z,22.13
2019-03-26T06:30:21.072Z,23.90
2019-03-26T06:32:52.454Z,23.73
2019-03-26T06:35:23.868Z,20.27
2019-03-26T06:37:55.282Z,20.25
2019-03-26T06:40:26.829Z,24.20
2019-03-26T06:42:58.227Z,23.55
2019-03-26T06:45:30.027Z,24.70
2019-03-26T06:48:04.075Z,22.98
2019-03-26T06:50:34.511Z,23.47
2019-03-26T06:53:06.312Z,23.77
2019-03-26T06:55:37.801Z,24.75
2019-03-26T06:58:09.949Z,25.88
2019-03-26T07:00:41.315Z,23.50
2019-03-26T07:03:12.595Z,23.80
2019-03-26T07:05:43.819Z,22.82
2019-03-26T07:08:15.073Z,23.00
2019-03-26T07:10:46.462Z,23.85
2019-03-26T07:13:18.010Z,23.12
2019-03-26T07:15:49.323Z,23.25
2019-03-26T07:18:20.622Z,23.75
2019-03-26T07:20:52.090Z,22.60
2019-03-26T07:23:23.447Z,24.55
2019-03-26T07:25:55.034Z,24.12
2019-03-26T07:28:27.837Z,26.05
2019-03-26T07:30:59.073Z,27.45
2019-03-26T07:33:30.410Z,28.42
2019-03-26T07:36:01.666Z,28.20
2019-03-26T07:38:33.019Z,30.35
2019-03-26T07:41:04.389Z,29.67
2019-03-26T07:43:35.655Z,32.85
2019-03-26T07:46:08.155Z,34.65
2019-03-26T07:48:39.461Z,34.50
2019-03-26T07:51:10.789Z,34.83
2019-03-26T07:53:42.139Z,34.85
2019-03-26T07:56:13.358Z,36.60
2019-03-26T07:58:44.544Z,35.90
2019-03-26T08:01:15.814Z,39.98
2019-03-26T08:03:47.025Z,42.40
2019-03-26T08:06:18.267Z,40.85
2019-03-26T08:08:49.664Z,41.73
2019-03-26T08:11:20.960Z,39.90
2019-03-26T08:13:52.373Z,39.23
2019-03-26T08:16:23.647Z,39.53
2019-03-26T08:18:55.101Z,37.98
2019-03-26T08:21:26.429Z,38.15
2019-03-26T08:23:57.768Z,38.60
2019-03-26T08:26:29.143Z,38.25
2019-03-26T08:29:01.103Z,40.67
2019-03-26T08:31:32.455Z,38.60
2019-03-26T08:34:03.798Z,39.95
2019-03-26T08:36:35.040Z,41.40
2019-03-26T08:39:07.969Z,43.55
2019-03-26T08:41:39.473Z,41.95
2019-03-26T08:44:10.780Z,37.70
2019-03-26T08:46:42.262Z,37.75
2019-03-26T08:49:14.310Z,37.63
2019-03-26T08:51:45.832Z,35.95
2019-03-26T08:54:19.456Z,37.33
2019-03-26T08:56:50.603Z,35.83
2019-03-26T08:59:21.844Z,38.42
2019-03-26T09:01:53.482Z,35.83
2019-03-26T09:04:26.957Z,40.67
2019-03-26T09:06:58.041Z,39.27
2019-03-26T09:09:29.332Z,40.00
2019-03-26T09:12:00.569Z,38.17
2019-03-26T09:14:31.943Z,37.42
2019-03-26T09:17:03.315Z,41.25
2019-03-26T09:19:35.072Z,38.92
2019-03-26T09:22:06.455Z,39.90
2019-03-26T09:24:39.355Z,44.20
2019-03-26T09:29:41.242Z,44.18
2019-03-26T09:32:12.520Z,44.83
2019-03-26T09:34:43.761Z,43.20
2019-03-26T09:37:15.372Z,42.67
2019-03-26T09:39:46.759Z,45.60
2019-03-26T09:42:18.169Z,47.00
2019-03-26T09:44:49.483Z,43.38
2019-03-26T09:47:24.418Z,43.92
2019-03-26T09:49:59.873Z,40.28
2019-03-26T09:52:33.867Z,39.53
2019-03-26T09:55:07.598Z,40.15
2019-03-26T09:57:39.034Z,40.48
2019-03-26T10:00:11.631Z,40.48
2019-03-26T10:02:43.651Z,44.53
2019-03-26T10:05:15.267Z,47.80
2019-03-26T10:07:46.544Z,47.15
2019-03-26T10:10:21.136Z,46.83
2019-03-26T10:12:52.596Z,43.35
2019-03-26T10:15:24.139Z,47.73
2019-03-26T10:17:55.562Z,48.70
2019-03-26T10:20:26.950Z,51.28
2019-03-26T10:23:01.465Z,45.30
2019-03-26T10:25:32.840Z,43.73
2019-03-26T10:28:04.230Z,43.87
2019-03-26T10:30:38.975Z,43.17
2019-03-26T10:33:10.455Z,45.03
2019-03-26T10:35:43.746Z,36.15
2019-03-26T10:38:15.314Z,37.20
2019-03-26T10:40:46.689Z,36.65
2019-03-26T10:43:19.944Z,35.25
2019-03-26T10:45:51.272Z,36.28
2019-03-26T10:48:22.552Z,39.20
2019-03-26T10:50:53.797Z,37.00
2019-03-26T10:53:25.078Z,36.25
2019-03-26T10:55:56.464Z,38.45
2019-03-26T10:58:27.763Z,41.10
2019-03-26T11:00:59.133Z,41.48
2019-03-26T11:03:32.329Z,42.78
2019-03-26T11:06:03.866Z,39.98
2019-03-26T11:08:35.381Z,41.68
2019-03-26T11:11:06.912Z,42.10
2019-03-26T11:13:38.512Z,42.95
2019-03-26T11:16:10.163Z,42.90
2019-03-26T11:18:42.606Z,43.73
2019-03-26T11:39:56.019Z,42.43
2019-03-26T11:42:26.635Z,39.58
2019-03-26T11:44:59.252Z,41.13
2019-03-26T11:47:28.645Z,38.88
2019-03-26T11:49:59.161Z,39.65
2019-03-26T11:52:29.561Z,41.35
2019-03-26T11:54:59.954Z,37.53
2019-03-26T11:57:30.391Z,39.95
2019-03-26T12:00:00.856Z,40.33
2019-03-26T12:02:31.314Z,40.80
2019-03-26T12:05:01.867Z,40.55
2019-03-26T12:07:32.357Z,39.78
2019-03-26T12:10:03.092Z,38.30
2019-03-26T12:12:33.512Z,44.88
2019-03-26T12:15:05.685Z,44.33
2019-03-26T12:17:36.114Z,45.58
2019-03-26T12:20:09.750Z,42.33
2019-03-26T12:22:40.358Z,41.92
2019-03-26T12:25:11.082Z,42.78
2019-03-26T12:27:41.078Z,41.05
2019-03-26T12:30:12.234Z,36.90
2019-03-26T12:32:42.243Z,26.27
2019-03-26T12:35:15.544Z,17.37
2019-03-26T12:37:45.578Z,16.97
2019-03-26T12:40:17.858Z,15.28
2019-03-26T12:42:48.152Z,14.05
2019-03-26T12:45:18.598Z,13.43
2019-03-26T12:47:48.927Z,13.18
2019-03-26T12:50:19.553Z,12.85
2019-03-26T12:52:49.876Z,11.85
2019-03-26T12:55:20.394Z,12.53
2019-03-26T12:57:50.830Z,12.85
2019-03-26T13:00:22.787Z,13.40
2019-03-26T13:02:53.081Z,13.70
2019-03-26T13:05:23.497Z,14.60
2019-03-26T13:07:53.553Z,23.45
2019-03-26T13:10:23.958Z,30.17
2019-03-26T13:12:54.407Z,26.93
2019-03-26T13:15:24.731Z,23.10
2019-03-26T13:17:55.170Z,23.50
2019-03-26T13:20:25.474Z,34.78
2019-03-26T13:22:55.883Z,34.18
2019-03-26T13:25:26.271Z,30.92
2019-03-26T13:27:56.760Z,34.85
2019-03-26T13:30:27.069Z,26.12
2019-03-26T13:32:57.322Z,18.57
2019-03-26T13:35:27.735Z,18.35
2019-03-26T13:37:58.064Z,13.32
2019-03-26T13:40:28.699Z,14.45
2019-03-26T13:42:59.534Z,15.23
2019-03-26T13:45:32.690Z,13.80
2019-03-26T13:48:01.350Z,13.50
2019-03-26T13:50:31.831Z,14.55
2019-03-26T13:53:02.340Z,13.48
2019-03-26T13:55:32.891Z,12.90
2019-03-26T13:58:03.436Z,12.75
2019-03-26T14:00:34.577Z,14.47
2019-03-26T14:03:05.711Z,13.62
2019-03-26T14:05:35.965Z,13.50
2019-03-26T14:08:06.468Z,13.68
2019-03-26T14:10:41.139Z,11.08
2019-03-26T14:13:08.953Z,12.10
2019-03-26T14:15:39.801Z,11.38
2019-03-26T14:18:10.740Z,11.97
2019-03-26T14:20:42.037Z,12.63
2019-03-26T14:23:12.619Z,12.47
2019-03-26T14:25:43.355Z,13.83
2019-03-26T14:28:13.481Z,13.85
2019-03-26T14:30:44.110Z,12.30
2019-03-26T14:33:15.541Z,13.13
2019-03-26T14:35:45.882Z,15.03
2019-03-26T14:38:16.375Z,13.50
2019-03-26T14:40:54.699Z,12.13
2019-03-26T14:43:18.800Z,14.07
2019-03-26T14:45:48.666Z,13.95
2019-03-26T14:48:19.133Z,13.55
2019-03-26T14:50:49.251Z,12.60
2019-03-26T14:53:19.574Z,14.40
2019-03-26T14:55:50.413Z,14.13
2019-03-26T14:58:20.431Z,14.05
2019-03-26T15:00:52.292Z,15.30
2019-03-26T15:03:22.711Z,16.17
2019-03-26T15:05:53.085Z,13.95
2019-03-26T15:08:23.527Z,13.95
2019-03-26T15:11:07.281Z,13.98
2019-03-26T15:13:25.769Z,15.33
2019-03-26T15:15:55.688Z,13.90
2019-03-26T15:18:26.158Z,14.30
2019-03-26T15:20:56.596Z,13.65
2019-03-26T15:23:26.853Z,16.00
2019-03-26T15:25:57.969Z,16.42
2019-03-26T15:28:28.424Z,17.32
2019-03-26T15:31:00.152Z,16.10
2019-03-26T15:33:33.647Z,16.65
2019-03-26T15:36:03.282Z,13.35
2019-03-26T15:38:33.813Z,13.95
2019-03-26T15:41:04.414Z,13.50
2019-03-26T15:43:35.090Z,12.40
2019-03-26T15:46:05.118Z,13.75
2019-03-26T15:48:35.448Z,12.10
2019-03-26T15:51:06.063Z,13.53
2019-03-26T15:53:36.181Z,13.35
2019-03-26T15:56:06.601Z,12.93
2019-03-26T15:58:37.342Z,13.15
2019-03-26T16:01:07.768Z,17.98
2019-03-26T16:03:38.291Z,15.83
2019-03-26T16:06:08.757Z,16.42
2019-03-26T16:08:39.395Z,17.85
2019-03-26T16:11:09.854Z,18.25
2019-03-26T16:13:40.192Z,17.30
2019-03-26T16:16:10.541Z,16.97
2019-03-26T16:18:40.945Z,17.57
2019-03-26T16:21:11.271Z,17.15
2019-03-26T16:23:41.910Z,17.15
2019-03-26T16:26:12.354Z,17.82
2019-03-26T16:28:42.865Z,18.20
2019-03-26T16:31:13.816Z,18.27
2019-03-26T16:33:44.027Z,18.12
2019-03-26T16:36:14.345Z,21.37
2019-03-26T16:38:44.779Z,18.92
2019-03-26T16:41:15.168Z,19.90
2019-03-26T16:43:45.627Z,18.40
2019-03-26T16:46:16.158Z,18.35
2019-03-26T16:48:46.578Z,18.60
2019-03-26T16:51:16.708Z,17.92
2019-03-26T16:53:47.293Z,19.27
2019-03-26T16:56:17.877Z,21.20
2019-03-26T16:58:48.195Z,19.77
2019-03-26T17:01:18.647Z,19.75
2019-03-26T17:03:48.951Z,18.35
2019-03-26T17:06:19.281Z,19.60
2019-03-26T17:08:49.590Z,21.07
2019-03-26T17:11:20.024Z,21.37
2019-03-26T17:13:50.546Z,20.43
2019-03-26T17:16:21.079Z,21.05
2019-03-26T17:18:51.608Z,20.30
2019-03-26T17:21:22.075Z,19.67
2019-03-26T17:23:52.763Z,20.40
2019-03-26T17:26:23.405Z,23.20
2019-03-26T17:28:53.795Z,23.38
2019-03-26T17:31:24.617Z,24.77
2019-03-26T17:33:54.983Z,24.98
2019-03-26T17:36:25.528Z,23.57
2019-03-26T17:38:55.571Z,23.70
2019-03-26T17:41:26.334Z,22.42
2019-03-26T17:43:56.792Z,23.20
2019-03-26T17:46:27.179Z,23.40
2019-03-26T17:48:57.653Z,22.30
2019-03-26T17:51:28.497Z,22.98
2019-03-26T17:53:59.021Z,23.47
2019-03-26T17:56:29.559Z,25.92
2019-03-26T17:58:59.887Z,25.88
2019-03-26T18:01:30.516Z,25.62
2019-03-26T18:04:01.144Z,23.85
2019-03-26T18:06:32.184Z,23.18
2019-03-26T18:09:02.938Z,22.77
2019-03-26T18:11:34.358Z,21.12
2019-03-26T18:14:04.791Z,20.60
2019-03-26T18:16:35.122Z,21.60
2019-03-26T18:19:05.446Z,20.02
2019-03-26T18:21:35.876Z,21.57
2019-03-26T18:24:05.886Z,20.55
2019-03-26T18:26:35.953Z,20.35
2019-03-26T18:29:15.859Z,18.90
2019-03-26T18:31:50.708Z,20.25
2019-03-26T18:34:21.212Z,20.90
2019-03-26T18:36:51.534Z,19.05
2019-03-26T18:39:21.961Z,20.30
2019-03-26T18:41:52.487Z,21.23
2019-03-26T18:44:23.031Z,21.55
2019-03-26T18:46:54.589Z,20.62
2019-03-26T18:49:24.528Z,19.65
2019-03-26T18:51:55.148Z,18.45
2019-03-26T18:54:25.627Z,19.17
2019-03-26T18:56:55.991Z,17.60
2019-03-26T18:59:26.408Z,18.40
2019-03-26T19:01:56.838Z,18.30
2019-03-26T19:04:27.348Z,17.48
2019-03-26T19:06:57.778Z,16.57
2019-03-26T19:09:28.210Z,17.90
2019-03-26T19:11:58.472Z,17.82
2019-03-26T19:14:28.977Z,16.85
2019-03-26T19:16:59.098Z,15.98
2019-03-26T19:19:29.307Z,18.65
2019-03-26T19:21:59.831Z,18.73
2019-03-26T19:24:30.578Z,19.20
2019-03-26T19:27:04.262Z,17.55
2019-03-26T19:29:33.199Z,19.32
2019-03-26T19:32:03.891Z,17.57
2019-03-26T19:34:34.559Z,17.82
2019-03-26T19:37:04.855Z,19.45
2019-03-26T19:39:35.383Z,20.05
2019-03-26T19:42:06.060Z,20.72
2019-03-26T19:44:36.655Z,18.50
2019-03-26T19:47:07.015Z,18.82
2019-03-26T19:49:37.403Z,19.62
2019-03-26T19:52:08.803Z,19.85
2019-03-26T19:54:39.268Z,18.87
2019-03-26T19:57:09.812Z,21.52
2019-03-26T19:59:40.226Z,19.17
2019-03-26T20:02:10.761Z,19.65
2019-03-26T20:04:40.872Z,22.02
2019-03-26T20:07:11.419Z,19.35
2019-03-26T20:09:41.724Z,18.77
2019-03-26T20:12:12.265Z,17.87
2019-03-26T20:14:42.799Z,17.70
2019-03-26T20:17:13.115Z,17.37
2019-03-26T20:19:43.535Z,19.35
2019-03-26T20:22:13.972Z,17.12
2019-03-26T20:24:44.392Z,16.95
2019-03-26T20:27:14.832Z,17.77
2019-03-26T20:29:45.167Z,18.00
2019-03-26T20:32:15.600Z,18.95
2019-03-26T20:34:46.102Z,18.23
2019-03-26T20:37:16.733Z,17.73
2019-03-26T20:39:46.749Z,19.30
2019-03-26T20:42:17.181Z,18.20
2019-03-26T20:44:47.197Z,16.80
2019-03-26T20:47:17.467Z,17.23
2019-03-26T20:49:47.958Z,16.42
2019-03-26T20:52:18.492Z,18.42
2019-03-26T20:54:48.599Z,19.10
2019-03-26T20:57:19.561Z,17.27
2019-03-26T20:59:49.571Z,16.52
2019-03-26T21:02:19.984Z,17.92
2019-03-26T21:04:50.605Z,19.10
2019-03-26T21:07:21.139Z,16.95
2019-03-26T21:09:51.442Z,15.63
2019-03-26T21:12:22.811Z,15.58
2019-03-26T21:14:53.266Z,15.43
2019-03-26T21:17:23.573Z,16.07
2019-03-26T21:19:54.297Z,16.73
2019-03-26T21:22:24.736Z,15.58
2019-03-26T21:24:55.160Z,13.98
2019-03-26T21:27:25.679Z,14.53
2019-03-26T21:30:09.800Z,14.87
2019-03-26T21:32:28.392Z,16.32
2019-03-26T21:34:58.809Z,14.95
2019-03-26T21:37:29.242Z,14.30
2019-03-26T21:39:59.860Z,15.53
2019-03-26T21:42:29.876Z,17.67
2019-03-26T21:45:00.365Z,15.90
2019-03-26T21:47:31.261Z,17.52
2019-03-26T21:50:01.675Z,16.90
2019-03-26T21:52:32.103Z,16.73
2019-03-26T21:55:02.458Z,17.10
2019-03-26T21:57:32.960Z,17.15
2019-03-26T22:00:05.261Z,20.35
2019-03-26T22:02:37.300Z,19.80
2019-03-26T22:05:07.831Z,19.75
2019-03-26T22:07:38.228Z,22.22
2019-03-26T22:10:08.691Z,22.58
2019-03-26T22:12:39.400Z,22.42
2019-03-26T22:15:10.453Z,23.87
2019-03-26T22:17:40.986Z,22.55
2019-03-26T22:20:11.506Z,22.10
2019-03-26T22:22:41.989Z,22.35
2019-03-26T22:25:12.339Z,25.92
2019-03-26T22:27:43.110Z,23.98
2019-03-26T22:30:13.530Z,24.75
2019-03-26T22:32:43.945Z,23.73
2019-03-26T22:35:14.297Z,26.57
2019-03-26T22:37:44.502Z,21.75
2019-03-26T22:40:14.964Z,21.75
2019-03-26T22:42:45.463Z,20.52
2019-03-26T22:45:16.094Z,19.42
2019-03-26T22:47:46.187Z,19.37
2019-03-26T22:50:16.848Z,18.35
2019-03-26T22:52:47.070Z,16.30
2019-03-26T22:55:18.813Z,18.80
2019-03-26T23:00:20.181Z,16.42
2019-03-26T23:02:51.963Z,17.80
2019-03-26T23:05:22.583Z,16.70
2019-03-26T23:07:53.305Z,17.52
2019-03-26T23:10:23.693Z,15.50
2019-03-26T23:12:54.169Z,15.95
2019-03-26T23:15:24.502Z,17.73
2019-03-26T23:17:55.050Z,17.42
2019-03-26T23:20:25.657Z,17.85
2019-03-26T23:22:56.184Z,15.98
2019-03-26T23:25:26.557Z,15.53
2019-03-26T23:27:57.149Z,15.78
2019-03-26T23:30:27.676Z,14.78
2019-03-26T23:32:58.401Z,15.65
2019-03-26T23:35:30.461Z,14.07
2019-03-26T23:38:01.104Z,15.30
2019-03-26T23:40:31.208Z,14.95
2019-03-26T23:43:01.731Z,16.73
2019-03-26T23:45:32.058Z,18.15
2019-03-26T23:48:02.459Z,19.42
2019-03-26T23:50:32.913Z,20.40
2019-03-26T23:53:03.457Z,20.48
2019-03-26T23:55:33.661Z,20.48
2019-03-26T23:58:04.321Z,20.45
